sensor_id;sensor_type;location;lat;lon;timestamp;P1;durP1;ratioP1;P2;durP2;ratioP2
68923;SDS011;55961;52.156;20.942;2023-01-01T00:01:22;8.65;;;4.03;;
68923;SDS011;55961;52.156;20.942;2023-01-01T00:03:52;8.85;;;3.47;;
68923;SDS011;55961;52.156;20.942;2023-01-01T00:06:19;6.57;;;2.92;;
68923;SDS011;55961;52.156;20.942;2023-01-01T00:08:44;6.63;;;3.40;;
68923;SDS011;55961;52.156;20.942;2023-01-01T00:11:10;9.68;;;3.55;;
68923;SDS011;55961;52.156;20.942;2023-01-01T00:13:37;7.75;;;3.70;;
68923;SDS011;55961;52.156;20.942;2023-01-01T00:16:05;8.95;;;3.95;;
68923;SDS011;55961;52.156;20.942;2023-01-01T00:18:36;8.50;;;3.60;;
68923;SDS011;55961;52.156;20.942;2023-01-01T00:21:03;11.52;;;5.40;;
68923;SDS011;55961;52.156;20.942;2023-01-01T00:23:30;8.80;;;3.35;;
68923;SDS011;55961;52.156;20.942;2023-01-01T00:25:56;9.68;;;3.85;;
68923;SDS011;55961;52.156;20.942;2023-01-01T00:28:22;8.43;;;3.90;;
68923;SDS011;55961;52.156;20.942;2023-01-01T00:30:48;8.20;;;3.40;;
68923;SDS011;55961;52.156;20.942;2023-01-01T00:33:14;9.57;;;3.50;;
68923;SDS011;55961;52.156;20.942;2023-01-01T00:35:40;9.05;;;3.67;;
68923;SDS011;55961;52.156;20.942;2023-01-01T00:38:06;8.20;;;3.60;;
68923;SDS011;55961;52.156;20.942;2023-01-01T00:40:32;7.68;;;3.15;;
68923;SDS011;55961;52.156;20.942;2023-01-01T00:42:58;8.27;;;3.30;;
68923;SDS011;55961;52.156;20.942;2023-01-01T00:45:24;6.60;;;2.92;;
68923;SDS011;55961;52.156;20.942;2023-01-01T00:47:50;7.77;;;3.63;;
68923;SDS011;55961;52.156;20.942;2023-01-01T00:50:20;6.85;;;3.28;;
68923;SDS011;55961;52.156;20.942;2023-01-01T00:52:47;7.97;;;3.10;;
68923;SDS011;55961;52.156;20.942;2023-01-01T00:55:13;12.13;;;4.55;;
68923;SDS011;55961;52.156;20.942;2023-01-01T00:57:39;6.63;;;2.70;;
68923;SDS011;55961;52.156;20.942;2023-01-01T01:00:06;7.38;;;3.33;;
68923;SDS011;55961;52.156;20.942;2023-01-01T01:02:33;8.30;;;3.22;;
68923;SDS011;55961;52.156;20.942;2023-01-01T01:04:59;7.38;;;3.13;;
68923;SDS011;55961;52.156;20.942;2023-01-01T01:07:31;12.10;;;4.43;;
68923;SDS011;55961;52.156;20.942;2023-01-01T01:10:00;7.60;;;3.17;;
68923;SDS011;55961;52.156;20.942;2023-01-01T01:12:25;7.28;;;3.60;;
68923;SDS011;55961;52.156;20.942;2023-01-01T01:14:51;9.23;;;3.50;;
68923;SDS011;55961;52.156;20.942;2023-01-01T01:17:17;8.17;;;3.83;;
68923;SDS011;55961;52.156;20.942;2023-01-01T01:19:43;7.05;;;3.03;;
68923;SDS011;55961;52.156;20.942;2023-01-01T01:22:09;7.95;;;3.03;;
68923;SDS011;55961;52.156;20.942;2023-01-01T01:24:35;5.67;;;2.60;;
68923;SDS011;55961;52.156;20.942;2023-01-01T01:27:01;7.97;;;2.80;;
68923;SDS011;55961;52.156;20.942;2023-01-01T01:29:27;7.35;;;3.50;;
68923;SDS011;55961;52.156;20.942;2023-01-01T01:31:52;8.60;;;3.23;;
68923;SDS011;55961;52.156;20.942;2023-01-01T01:34:18;7.07;;;3.20;;
68923;SDS011;55961;52.156;20.942;2023-01-01T01:36:44;8.70;;;3.10;;
68923;SDS011;55961;52.156;20.942;2023-01-01T01:39:10;7.68;;;3.35;;
68923;SDS011;55961;52.156;20.942;2023-01-01T01:41:36;5.83;;;2.70;;
68923;SDS011;55961;52.156;20.942;2023-01-01T01:44:05;8.48;;;4.38;;
68923;SDS011;55961;52.156;20.942;2023-01-01T01:46:51;9.25;;;3.78;;
68923;SDS011;55961;52.156;20.942;2023-01-01T01:49:26;9.35;;;3.50;;
68923;SDS011;55961;52.156;20.942;2023-01-01T01:51:54;7.60;;;3.75;;
68923;SDS011;55961;52.156;20.942;2023-01-01T01:54:21;8.17;;;3.50;;
68923;SDS011;55961;52.156;20.942;2023-01-01T01:56:54;7.55;;;3.40;;
68923;SDS011;55961;52.156;20.942;2023-01-01T01:59:25;9.30;;;3.70;;
68923;SDS011;55961;52.156;20.942;2023-01-01T02:01:54;16.38;;;6.70;;
68923;SDS011;55961;52.156;20.942;2023-01-01T02:04:20;9.05;;;3.95;;
68923;SDS011;55961;52.156;20.942;2023-01-01T02:06:46;10.63;;;5.33;;
68923;SDS011;55961;52.156;20.942;2023-01-01T02:09:14;10.68;;;3.65;;
68923;SDS011;55961;52.156;20.942;2023-01-01T02:11:41;8.23;;;3.83;;
68923;SDS011;55961;52.156;20.942;2023-01-01T02:14:07;8.30;;;3.53;;
68923;SDS011;55961;52.156;20.942;2023-01-01T02:21:36;8.35;;;2.75;;
68923;SDS011;55961;52.156;20.942;2023-01-01T02:26:57;6.82;;;3.25;;
68923;SDS011;55961;52.156;20.942;2023-01-01T02:32:18;6.60;;;2.37;;
68923;SDS011;55961;52.156;20.942;2023-01-01T02:35:02;7.43;;;3.33;;
68923;SDS011;55961;52.156;20.942;2023-01-01T02:38:04;7.25;;;3.20;;
68923;SDS011;55961;52.156;20.942;2023-01-01T02:40:55;8.75;;;2.78;;
68923;SDS011;55961;52.156;20.942;2023-01-01T02:43:26;6.13;;;3.20;;
68923;SDS011;55961;52.156;20.942;2023-01-01T02:45:53;6.87;;;2.80;;
68923;SDS011;55961;52.156;20.942;2023-01-01T03:02:33;8.25;;;3.38;;
68923;SDS011;55961;52.156;20.942;2023-01-01T03:05:33;5.68;;;2.67;;
68923;SDS011;55961;52.156;20.942;2023-01-01T03:11:20;6.72;;;2.95;;
68923;SDS011;55961;52.156;20.942;2023-01-01T03:14:01;7.60;;;3.27;;
68923;SDS011;55961;52.156;20.942;2023-01-01T03:19:25;7.50;;;3.20;;
68923;SDS011;55961;52.156;20.942;2023-01-01T03:26:53;5.90;;;2.50;;
68923;SDS011;55961;52.156;20.942;2023-01-01T03:29:23;7.72;;;2.97;;
68923;SDS011;55961;52.156;20.942;2023-01-01T03:31:54;7.25;;;3.47;;
68923;SDS011;55961;52.156;20.942;2023-01-01T03:34:26;7.22;;;3.25;;
68923;SDS011;55961;52.156;20.942;2023-01-01T03:36:58;6.63;;;3.50;;
68923;SDS011;55961;52.156;20.942;2023-01-01T03:39:29;8.85;;;3.40;;
68923;SDS011;55961;52.156;20.942;2023-01-01T03:44:51;7.13;;;3.15;;
68923;SDS011;55961;52.156;20.942;2023-01-01T03:47:22;7.80;;;3.28;;
68923;SDS011;55961;52.156;20.942;2023-01-01T03:49:48;8.63;;;3.63;;
68923;SDS011;55961;52.156;20.942;2023-01-01T03:55:17;8.93;;;2.90;;
68923;SDS011;55961;52.156;20.942;2023-01-01T04:00:53;6.30;;;2.65;;
68923;SDS011;55961;52.156;20.942;2023-01-01T04:03:26;6.13;;;3.00;;
68923;SDS011;55961;52.156;20.942;2023-01-01T04:05:54;9.63;;;4.13;;
68923;SDS011;55961;52.156;20.942;2023-01-01T04:08:20;6.65;;;3.13;;
68923;SDS011;55961;52.156;20.942;2023-01-01T04:10:53;7.00;;;3.30;;
68923;SDS011;55961;52.156;20.942;2023-01-01T04:13:23;8.27;;;2.93;;
68923;SDS011;55961;52.156;20.942;2023-01-01T04:15:49;7.38;;;3.30;;
68923;SDS011;55961;52.156;20.942;2023-01-01T04:18:15;6.22;;;2.67;;
68923;SDS011;55961;52.156;20.942;2023-01-01T04:20:41;6.80;;;3.08;;
68923;SDS011;55961;52.156;20.942;2023-01-01T04:23:07;6.50;;;2.73;;
68923;SDS011;55961;52.156;20.942;2023-01-01T04:25:33;6.57;;;2.75;;
68923;SDS011;55961;52.156;20.942;2023-01-01T04:27:59;6.40;;;3.00;;
68923;SDS011;55961;52.156;20.942;2023-01-01T04:30:28;5.77;;;2.53;;
68923;SDS011;55961;52.156;20.942;2023-01-01T04:32:54;6.00;;;2.88;;
68923;SDS011;55961;52.156;20.942;2023-01-01T04:35:20;6.97;;;2.90;;
68923;SDS011;55961;52.156;20.942;2023-01-01T04:37:46;6.60;;;3.10;;
68923;SDS011;55961;52.156;20.942;2023-01-01T04:40:12;6.00;;;2.33;;
68923;SDS011;55961;52.156;20.942;2023-01-01T04:42:38;6.22;;;2.65;;
68923;SDS011;55961;52.156;20.942;2023-01-01T04:45:05;5.10;;;2.40;;
68923;SDS011;55961;52.156;20.942;2023-01-01T04:47:31;4.80;;;2.05;;
68923;SDS011;55961;52.156;20.942;2023-01-01T04:49:57;6.05;;;2.63;;
68923;SDS011;55961;52.156;20.942;2023-01-01T04:52:23;4.97;;;1.93;;
68923;SDS011;55961;52.156;20.942;2023-01-01T04:54:49;6.78;;;2.75;;
68923;SDS011;55961;52.156;20.942;2023-01-01T04:57:15;6.32;;;2.90;;
68923;SDS011;55961;52.156;20.942;2023-01-01T04:59:41;6.07;;;2.57;;
68923;SDS011;55961;52.156;20.942;2023-01-01T05:02:08;4.28;;;1.80;;
68923;SDS011;55961;52.156;20.942;2023-01-01T05:04:34;6.40;;;2.10;;
68923;SDS011;55961;52.156;20.942;2023-01-01T05:06:59;4.82;;;1.92;;
68923;SDS011;55961;52.156;20.942;2023-01-01T05:09:25;5.53;;;1.90;;
68923;SDS011;55961;52.156;20.942;2023-01-01T05:11:52;5.05;;;2.03;;
68923;SDS011;55961;52.156;20.942;2023-01-01T05:14:19;5.30;;;2.17;;
68923;SDS011;55961;52.156;20.942;2023-01-01T05:16:45;4.80;;;2.03;;
68923;SDS011;55961;52.156;20.942;2023-01-01T05:19:11;5.47;;;2.50;;
68923;SDS011;55961;52.156;20.942;2023-01-01T05:21:38;4.97;;;2.15;;
68923;SDS011;55961;52.156;20.942;2023-01-01T05:24:06;6.20;;;2.33;;
68923;SDS011;55961;52.156;20.942;2023-01-01T05:26:34;6.27;;;2.20;;
68923;SDS011;55961;52.156;20.942;2023-01-01T05:29:02;4.45;;;1.73;;
68923;SDS011;55961;52.156;20.942;2023-01-01T05:31:30;4.65;;;2.00;;
68923;SDS011;55961;52.156;20.942;2023-01-01T05:33:58;6.30;;;2.72;;
68923;SDS011;55961;52.156;20.942;2023-01-01T05:36:25;9.23;;;2.05;;
68923;SDS011;55961;52.156;20.942;2023-01-01T05:38:53;4.60;;;2.40;;
68923;SDS011;55961;52.156;20.942;2023-01-01T05:41:20;6.00;;;2.85;;
68923;SDS011;55961;52.156;20.942;2023-01-01T05:43:47;5.70;;;2.35;;
68923;SDS011;55961;52.156;20.942;2023-01-01T05:46:16;6.25;;;2.42;;
68923;SDS011;55961;52.156;20.942;2023-01-01T05:48:44;5.45;;;2.40;;
68923;SDS011;55961;52.156;20.942;2023-01-01T05:51:21;5.77;;;2.33;;
68923;SDS011;55961;52.156;20.942;2023-01-01T05:53:49;9.50;;;2.80;;
68923;SDS011;55961;52.156;20.942;2023-01-01T05:56:15;6.85;;;3.00;;
68923;SDS011;55961;52.156;20.942;2023-01-01T05:58:42;6.97;;;2.50;;
68923;SDS011;55961;52.156;20.942;2023-01-01T06:03:41;5.97;;;2.20;;
68923;SDS011;55961;52.156;20.942;2023-01-01T06:06:11;4.78;;;2.05;;
68923;SDS011;55961;52.156;20.942;2023-01-01T06:08:39;5.20;;;1.98;;
68923;SDS011;55961;52.156;20.942;2023-01-01T06:11:06;5.78;;;2.42;;
68923;SDS011;55961;52.156;20.942;2023-01-01T06:13:33;4.97;;;1.90;;
68923;SDS011;55961;52.156;20.942;2023-01-01T06:16:00;6.38;;;2.30;;
68923;SDS011;55961;52.156;20.942;2023-01-01T06:18:30;5.57;;;2.03;;
68923;SDS011;55961;52.156;20.942;2023-01-01T06:21:03;4.80;;;2.20;;
68923;SDS011;55961;52.156;20.942;2023-01-01T06:23:34;4.80;;;1.90;;
68923;SDS011;55961;52.156;20.942;2023-01-01T06:26:06;5.88;;;2.58;;
68923;SDS011;55961;52.156;20.942;2023-01-01T06:28:36;7.07;;;2.40;;
68923;SDS011;55961;52.156;20.942;2023-01-01T06:31:03;6.78;;;2.95;;
68923;SDS011;55961;52.156;20.942;2023-01-01T06:33:32;7.50;;;3.65;;
68923;SDS011;55961;52.156;20.942;2023-01-01T06:35:58;8.40;;;3.60;;
68923;SDS011;55961;52.156;20.942;2023-01-01T06:38:26;6.38;;;2.95;;
68923;SDS011;55961;52.156;20.942;2023-01-01T06:40:55;6.78;;;2.80;;
68923;SDS011;55961;52.156;20.942;2023-01-01T06:43:26;7.72;;;3.08;;
68923;SDS011;55961;52.156;20.942;2023-01-01T06:46:01;7.30;;;3.10;;
68923;SDS011;55961;52.156;20.942;2023-01-01T06:48:29;8.10;;;2.80;;
68923;SDS011;55961;52.156;20.942;2023-01-01T06:50:56;7.30;;;2.67;;
68923;SDS011;55961;52.156;20.942;2023-01-01T06:53:24;4.53;;;2.15;;
68923;SDS011;55961;52.156;20.942;2023-01-01T06:55:51;6.30;;;3.30;;
68923;SDS011;55961;52.156;20.942;2023-01-01T06:58:17;5.93;;;2.63;;
68923;SDS011;55961;52.156;20.942;2023-01-01T07:00:43;5.80;;;2.90;;
68923;SDS011;55961;52.156;20.942;2023-01-01T07:03:09;5.82;;;2.00;;
68923;SDS011;55961;52.156;20.942;2023-01-01T07:05:35;7.20;;;2.92;;
68923;SDS011;55961;52.156;20.942;2023-01-01T07:08:01;6.37;;;3.30;;
68923;SDS011;55961;52.156;20.942;2023-01-01T07:10:27;6.00;;;2.88;;
68923;SDS011;55961;52.156;20.942;2023-01-01T07:12:53;6.60;;;2.53;;
68923;SDS011;55961;52.156;20.942;2023-01-01T07:15:18;7.03;;;3.37;;
68923;SDS011;55961;52.156;20.942;2023-01-01T07:17:44;5.63;;;2.55;;
68923;SDS011;55961;52.156;20.942;2023-01-01T07:20:10;15.40;;;8.17;;
68923;SDS011;55961;52.156;20.942;2023-01-01T07:22:36;7.40;;;3.38;;
68923;SDS011;55961;52.156;20.942;2023-01-01T07:25:04;6.38;;;2.20;;
68923;SDS011;55961;52.156;20.942;2023-01-01T07:27:30;9.02;;;2.70;;
68923;SDS011;55961;52.156;20.942;2023-01-01T07:29:56;7.80;;;2.33;;
68923;SDS011;55961;52.156;20.942;2023-01-01T07:32:22;8.38;;;2.78;;
68923;SDS011;55961;52.156;20.942;2023-01-01T07:34:48;7.07;;;3.15;;
68923;SDS011;55961;52.156;20.942;2023-01-01T07:37:14;9.55;;;3.40;;
68923;SDS011;55961;52.156;20.942;2023-01-01T07:39:40;9.43;;;3.40;;
68923;SDS011;55961;52.156;20.942;2023-01-01T07:42:06;10.63;;;4.50;;
68923;SDS011;55961;52.156;20.942;2023-01-01T07:44:31;7.83;;;3.10;;
68923;SDS011;55961;52.156;20.942;2023-01-01T07:47:04;11.77;;;3.15;;
68923;SDS011;55961;52.156;20.942;2023-01-01T07:49:45;6.63;;;2.70;;
68923;SDS011;55961;52.156;20.942;2023-01-01T07:52:11;7.00;;;2.25;;
68923;SDS011;55961;52.156;20.942;2023-01-01T07:54:37;6.87;;;3.07;;
68923;SDS011;55961;52.156;20.942;2023-01-01T07:57:03;7.13;;;2.33;;
68923;SDS011;55961;52.156;20.942;2023-01-01T07:59:28;5.40;;;2.20;;
68923;SDS011;55961;52.156;20.942;2023-01-01T08:01:55;9.48;;;2.42;;
68923;SDS011;55961;52.156;20.942;2023-01-01T08:04:30;6.70;;;2.13;;
68923;SDS011;55961;52.156;20.942;2023-01-01T08:06:56;5.95;;;2.35;;
68923;SDS011;55961;52.156;20.942;2023-01-01T08:09:21;5.97;;;2.50;;
68923;SDS011;55961;52.156;20.942;2023-01-01T08:11:47;8.15;;;2.70;;
68923;SDS011;55961;52.156;20.942;2023-01-01T08:14:18;6.83;;;2.60;;
68923;SDS011;55961;52.156;20.942;2023-01-01T08:16:44;5.35;;;2.05;;
68923;SDS011;55961;52.156;20.942;2023-01-01T08:19:10;9.15;;;2.72;;
68923;SDS011;55961;52.156;20.942;2023-01-01T08:21:36;5.25;;;2.20;;
68923;SDS011;55961;52.156;20.942;2023-01-01T08:24:01;7.13;;;2.43;;
68923;SDS011;55961;52.156;20.942;2023-01-01T08:26:31;7.15;;;2.72;;
68923;SDS011;55961;52.156;20.942;2023-01-01T08:29:00;8.55;;;2.20;;
68923;SDS011;55961;52.156;20.942;2023-01-01T08:31:30;9.67;;;2.33;;
68923;SDS011;55961;52.156;20.942;2023-01-01T08:33:57;7.13;;;2.72;;
68923;SDS011;55961;52.156;20.942;2023-01-01T08:36:23;5.55;;;2.22;;
68923;SDS011;55961;52.156;20.942;2023-01-01T08:38:49;8.27;;;2.72;;
68923;SDS011;55961;52.156;20.942;2023-01-01T08:41:15;12.13;;;3.17;;
68923;SDS011;55961;52.156;20.942;2023-01-01T08:43:41;6.43;;;2.60;;
68923;SDS011;55961;52.156;20.942;2023-01-01T08:46:07;7.65;;;3.10;;
68923;SDS011;55961;52.156;20.942;2023-01-01T08:48:32;8.03;;;2.60;;
68923;SDS011;55961;52.156;20.942;2023-01-01T08:50:59;6.63;;;2.70;;
68923;SDS011;55961;52.156;20.942;2023-01-01T08:53:26;6.47;;;2.33;;
68923;SDS011;55961;52.156;20.942;2023-01-01T08:55:57;8.00;;;2.35;;
68923;SDS011;55961;52.156;20.942;2023-01-01T08:58:23;9.07;;;2.83;;
68923;SDS011;55961;52.156;20.942;2023-01-01T09:00:50;7.65;;;2.58;;
68923;SDS011;55961;52.156;20.942;2023-01-01T09:03:17;11.70;;;2.70;;
68923;SDS011;55961;52.156;20.942;2023-01-01T09:05:43;10.70;;;3.45;;
68923;SDS011;55961;52.156;20.942;2023-01-01T09:08:13;11.18;;;2.03;;
68923;SDS011;55961;52.156;20.942;2023-01-01T09:10:40;7.28;;;2.45;;
68923;SDS011;55961;52.156;20.942;2023-01-01T09:13:09;8.80;;;2.40;;
68923;SDS011;55961;52.156;20.942;2023-01-01T09:15:48;9.60;;;2.80;;
68923;SDS011;55961;52.156;20.942;2023-01-01T09:18:14;6.70;;;1.80;;
68923;SDS011;55961;52.156;20.942;2023-01-01T09:20:40;7.55;;;2.30;;
68923;SDS011;55961;52.156;20.942;2023-01-01T09:23:06;9.87;;;2.53;;
68923;SDS011;55961;52.156;20.942;2023-01-01T09:25:33;8.52;;;2.85;;
68923;SDS011;55961;52.156;20.942;2023-01-01T09:28:00;8.65;;;2.55;;
68923;SDS011;55961;52.156;20.942;2023-01-01T09:30:29;12.02;;;2.25;;
68923;SDS011;55961;52.156;20.942;2023-01-01T09:32:55;8.60;;;2.10;;
68923;SDS011;55961;52.156;20.942;2023-01-01T09:35:21;5.65;;;1.42;;
68923;SDS011;55961;52.156;20.942;2023-01-01T09:37:47;8.52;;;1.63;;
68923;SDS011;55961;52.156;20.942;2023-01-01T09:48:30;8.40;;;2.53;;
68923;SDS011;55961;52.156;20.942;2023-01-01T09:51:01;8.80;;;2.90;;
68923;SDS011;55961;52.156;20.942;2023-01-01T09:53:44;4.97;;;2.08;;
68923;SDS011;55961;52.156;20.942;2023-01-01T09:56:18;9.35;;;2.30;;
68923;SDS011;55961;52.156;20.942;2023-01-01T09:58:48;8.10;;;2.13;;
68923;SDS011;55961;52.156;20.942;2023-01-01T10:13:00;9.93;;;2.33;;
68923;SDS011;55961;52.156;20.942;2023-01-01T10:15:40;7.43;;;1.80;;
68923;SDS011;55961;52.156;20.942;2023-01-01T10:18:18;7.13;;;2.10;;
68923;SDS011;55961;52.156;20.942;2023-01-01T10:21:07;8.60;;;2.08;;
68923;SDS011;55961;52.156;20.942;2023-01-01T10:26:29;5.73;;;2.40;;
68923;SDS011;55961;52.156;20.942;2023-01-01T10:29:03;8.00;;;2.40;;
68923;SDS011;55961;52.156;20.942;2023-01-01T10:31:51;11.43;;;2.22;;
68923;SDS011;55961;52.156;20.942;2023-01-01T10:34:23;7.13;;;2.10;;
68923;SDS011;55961;52.156;20.942;2023-01-01T10:36:51;6.13;;;2.35;;
68923;SDS011;55961;52.156;20.942;2023-01-01T10:39:22;9.53;;;2.43;;
68923;SDS011;55961;52.156;20.942;2023-01-01T10:41:49;8.98;;;2.15;;
68923;SDS011;55961;52.156;20.942;2023-01-01T10:44:16;7.07;;;2.50;;
68923;SDS011;55961;52.156;20.942;2023-01-01T10:46:52;8.70;;;2.50;;
68923;SDS011;55961;52.156;20.942;2023-01-01T10:49:23;8.82;;;2.03;;
68923;SDS011;55961;52.156;20.942;2023-01-01T10:51:50;10.57;;;2.30;;
68923;SDS011;55961;52.156;20.942;2023-01-01T10:54:34;6.68;;;1.95;;
68923;SDS011;55961;52.156;20.942;2023-01-01T10:57:14;7.47;;;2.40;;
68923;SDS011;55961;52.156;20.942;2023-01-01T11:00:44;10.07;;;3.08;;
68923;SDS011;55961;52.156;20.942;2023-01-01T11:06:27;11.80;;;2.40;;
68923;SDS011;55961;52.156;20.942;2023-01-01T11:08:45;6.22;;;2.10;;
68923;SDS011;55961;52.156;20.942;2023-01-01T11:11:21;9.30;;;2.80;;
68923;SDS011;55961;52.156;20.942;2023-01-01T11:13:57;9.65;;;2.55;;
68923;SDS011;55961;52.156;20.942;2023-01-01T11:16:25;7.83;;;2.43;;
68923;SDS011;55961;52.156;20.942;2023-01-01T11:18:59;13.27;;;3.13;;
68923;SDS011;55961;52.156;20.942;2023-01-01T11:21:33;12.43;;;2.60;;
68923;SDS011;55961;52.156;20.942;2023-01-01T11:24:18;7.05;;;2.78;;
68923;SDS011;55961;52.156;20.942;2023-01-01T11:26:45;8.98;;;2.28;;
68923;SDS011;55961;52.156;20.942;2023-01-01T11:29:23;11.80;;;4.13;;
68923;SDS011;55961;52.156;20.942;2023-01-01T11:31:53;10.48;;;2.90;;
68923;SDS011;55961;52.156;20.942;2023-01-01T11:34:31;11.57;;;3.55;;
68923;SDS011;55961;52.156;20.942;2023-01-01T11:39:40;9.73;;;3.10;;
68923;SDS011;55961;52.156;20.942;2023-01-01T11:42:19;9.63;;;2.90;;
68923;SDS011;55961;52.156;20.942;2023-01-01T11:44:54;9.20;;;3.17;;
68923;SDS011;55961;52.156;20.942;2023-01-01T11:47:26;10.73;;;2.85;;
68923;SDS011;55961;52.156;20.942;2023-01-01T11:52:42;9.80;;;2.50;;
68923;SDS011;55961;52.156;20.942;2023-01-01T11:55:12;8.30;;;2.13;;
68923;SDS011;55961;52.156;20.942;2023-01-01T11:57:58;10.13;;;2.55;;
68923;SDS011;55961;52.156;20.942;2023-01-01T12:00:35;6.78;;;2.05;;
68923;SDS011;55961;52.156;20.942;2023-01-01T12:05:51;10.80;;;3.25;;
68923;SDS011;55961;52.156;20.942;2023-01-01T12:11:54;7.65;;;2.67;;
68923;SDS011;55961;52.156;20.942;2023-01-01T12:14:46;7.85;;;2.75;;
68923;SDS011;55961;52.156;20.942;2023-01-01T12:22:23;5.80;;;2.17;;
68923;SDS011;55961;52.156;20.942;2023-01-01T12:24:50;8.98;;;2.30;;
68923;SDS011;55961;52.156;20.942;2023-01-01T12:31:18;9.70;;;3.03;;
68923;SDS011;55961;52.156;20.942;2023-01-01T12:34:06;7.70;;;2.55;;
68923;SDS011;55961;52.156;20.942;2023-01-01T12:36:42;8.17;;;2.30;;
68923;SDS011;55961;52.156;20.942;2023-01-01T12:42:18;8.75;;;2.50;;
68923;SDS011;55961;52.156;20.942;2023-01-01T12:45:03;10.25;;;2.65;;
68923;SDS011;55961;52.156;20.942;2023-01-01T13:00:40;7.22;;;2.88;;
68923;SDS011;55961;52.156;20.942;2023-01-01T13:03:18;8.80;;;4.13;;
68923;SDS011;55961;52.156;20.942;2023-01-01T13:05:49;8.50;;;3.03;;
68923;SDS011;55961;52.156;20.942;2023-01-01T13:08:18;8.15;;;2.70;;
68923;SDS011;55961;52.156;20.942;2023-01-01T13:10:45;8.10;;;2.30;;
68923;SDS011;55961;52.156;20.942;2023-01-01T13:13:13;6.90;;;2.20;;
68923;SDS011;55961;52.156;20.942;2023-01-01T13:20:38;9.82;;;2.30;;
68923;SDS011;55961;52.156;20.942;2023-01-01T13:31:16;7.32;;;3.08;;
68923;SDS011;55961;52.156;20.942;2023-01-01T13:33:42;9.55;;;2.88;;
68923;SDS011;55961;52.156;20.942;2023-01-01T13:38:46;11.68;;;3.58;;
68923;SDS011;55961;52.156;20.942;2023-01-01T13:58:03;8.35;;;3.15;;
68923;SDS011;55961;52.156;20.942;2023-01-01T14:03:44;8.73;;;3.65;;
68923;SDS011;55961;52.156;20.942;2023-01-01T14:06:25;9.20;;;3.40;;
68923;SDS011;55961;52.156;20.942;2023-01-01T14:09:02;7.90;;;3.17;;
68923;SDS011;55961;52.156;20.942;2023-01-01T14:11:31;7.50;;;2.45;;
68923;SDS011;55961;52.156;20.942;2023-01-01T14:13:57;7.57;;;3.33;;
68923;SDS011;55961;52.156;20.942;2023-01-01T14:16:24;10.25;;;3.50;;
68923;SDS011;55961;52.156;20.942;2023-01-01T14:18:51;5.88;;;2.70;;
68923;SDS011;55961;52.156;20.942;2023-01-01T14:21:23;9.75;;;2.92;;
68923;SDS011;55961;52.156;20.942;2023-01-01T14:23:54;8.10;;;2.90;;
68923;SDS011;55961;52.156;20.942;2023-01-01T14:26:27;7.30;;;2.30;;
68923;SDS011;55961;52.156;20.942;2023-01-01T14:28:55;9.30;;;2.55;;
68923;SDS011;55961;52.156;20.942;2023-01-01T14:31:28;11.30;;;3.10;;
68923;SDS011;55961;52.156;20.942;2023-01-01T14:33:56;6.97;;;2.40;;
68923;SDS011;55961;52.156;20.942;2023-01-01T14:36:26;10.40;;;3.33;;
68923;SDS011;55961;52.156;20.942;2023-01-01T14:38:54;8.48;;;3.05;;
68923;SDS011;55961;52.156;20.942;2023-01-01T14:41:28;6.63;;;2.95;;
68923;SDS011;55961;52.156;20.942;2023-01-01T14:44:06;9.82;;;3.50;;
68923;SDS011;55961;52.156;20.942;2023-01-01T14:46:40;6.28;;;3.00;;
68923;SDS011;55961;52.156;20.942;2023-01-01T14:49:09;7.63;;;3.00;;
68923;SDS011;55961;52.156;20.942;2023-01-01T14:51:40;6.47;;;3.72;;
68923;SDS011;55961;52.156;20.942;2023-01-01T14:54:11;7.88;;;3.20;;
68923;SDS011;55961;52.156;20.942;2023-01-01T14:56:43;9.52;;;3.28;;
68923;SDS011;55961;52.156;20.942;2023-01-01T14:59:14;9.15;;;4.00;;
68923;SDS011;55961;52.156;20.942;2023-01-01T15:01:45;8.57;;;3.50;;
68923;SDS011;55961;52.156;20.942;2023-01-01T15:04:18;9.90;;;3.22;;
68923;SDS011;55961;52.156;20.942;2023-01-01T15:07:22;10.20;;;3.65;;
68923;SDS011;55961;52.156;20.942;2023-01-01T15:09:47;12.27;;;3.97;;
68923;SDS011;55961;52.156;20.942;2023-01-01T15:12:13;8.88;;;4.30;;
68923;SDS011;55961;52.156;20.942;2023-01-01T15:14:42;6.63;;;3.00;;
68923;SDS011;55961;52.156;20.942;2023-01-01T15:17:10;8.77;;;3.65;;
68923;SDS011;55961;52.156;20.942;2023-01-01T15:19:39;9.10;;;4.03;;
68923;SDS011;55961;52.156;20.942;2023-01-01T15:25:09;10.82;;;3.90;;
68923;SDS011;55961;52.156;20.942;2023-01-01T15:27:37;7.85;;;3.97;;
68923;SDS011;55961;52.156;20.942;2023-01-01T15:30:04;8.93;;;4.05;;
68923;SDS011;55961;52.156;20.942;2023-01-01T15:32:35;8.67;;;3.67;;
68923;SDS011;55961;52.156;20.942;2023-01-01T15:35:05;8.57;;;3.45;;
68923;SDS011;55961;52.156;20.942;2023-01-01T15:37:53;7.60;;;3.17;;
68923;SDS011;55961;52.156;20.942;2023-01-01T15:45:26;8.23;;;3.80;;
68923;SDS011;55961;52.156;20.942;2023-01-01T15:50:42;6.80;;;3.85;;
68923;SDS011;55961;52.156;20.942;2023-01-01T15:53:50;12.60;;;4.38;;
68923;SDS011;55961;52.156;20.942;2023-01-01T15:56:25;9.10;;;4.10;;
68923;SDS011;55961;52.156;20.942;2023-01-01T16:02:25;14.75;;;6.70;;
68923;SDS011;55961;52.156;20.942;2023-01-01T16:04:48;11.57;;;4.97;;
68923;SDS011;55961;52.156;20.942;2023-01-01T16:07:19;10.18;;;5.30;;
68923;SDS011;55961;52.156;20.942;2023-01-01T16:09:48;11.02;;;4.90;;
68923;SDS011;55961;52.156;20.942;2023-01-01T16:12:15;11.77;;;6.13;;
68923;SDS011;55961;52.156;20.942;2023-01-01T16:15:05;8.60;;;3.13;;
68923;SDS011;55961;52.156;20.942;2023-01-01T16:17:52;9.65;;;4.03;;
68923;SDS011;55961;52.156;20.942;2023-01-01T16:20:24;9.65;;;3.35;;
68923;SDS011;55961;52.156;20.942;2023-01-01T16:22:50;9.40;;;3.65;;
68923;SDS011;55961;52.156;20.942;2023-01-01T16:25:19;9.23;;;3.50;;
68923;SDS011;55961;52.156;20.942;2023-01-01T16:27:46;8.10;;;4.30;;
68923;SDS011;55961;52.156;20.942;2023-01-01T16:30:12;7.25;;;3.40;;
68923;SDS011;55961;52.156;20.942;2023-01-01T16:32:40;9.52;;;4.25;;
68923;SDS011;55961;52.156;20.942;2023-01-01T16:35:10;8.70;;;3.83;;
68923;SDS011;55961;52.156;20.942;2023-01-01T16:37:37;9.13;;;4.65;;
68923;SDS011;55961;52.156;20.942;2023-01-01T16:40:04;9.43;;;4.13;;
68923;SDS011;55961;52.156;20.942;2023-01-01T16:42:32;12.38;;;6.78;;
68923;SDS011;55961;52.156;20.942;2023-01-01T16:44:58;11.73;;;6.53;;
68923;SDS011;55961;52.156;20.942;2023-01-01T16:47:24;15.57;;;5.97;;
68923;SDS011;55961;52.156;20.942;2023-01-01T16:49:50;10.02;;;4.40;;
68923;SDS011;55961;52.156;20.942;2023-01-01T16:52:19;8.38;;;3.88;;
68923;SDS011;55961;52.156;20.942;2023-01-01T16:54:47;8.27;;;3.95;;
68923;SDS011;55961;52.156;20.942;2023-01-01T16:57:16;12.35;;;4.28;;
68923;SDS011;55961;52.156;20.942;2023-01-01T16:59:42;8.30;;;3.63;;
68923;SDS011;55961;52.156;20.942;2023-01-01T17:02:08;9.65;;;3.63;;
68923;SDS011;55961;52.156;20.942;2023-01-01T17:04:35;9.55;;;4.10;;
68923;SDS011;55961;52.156;20.942;2023-01-01T17:07:01;7.93;;;3.80;;
68923;SDS011;55961;52.156;20.942;2023-01-01T17:09:29;7.93;;;4.00;;
68923;SDS011;55961;52.156;20.942;2023-01-01T17:11:56;8.52;;;3.45;;
68923;SDS011;55961;52.156;20.942;2023-01-01T17:14:21;8.40;;;3.70;;
68923;SDS011;55961;52.156;20.942;2023-01-01T17:16:48;9.27;;;3.97;;
68923;SDS011;55961;52.156;20.942;2023-01-01T17:19:15;9.70;;;4.35;;
68923;SDS011;55961;52.156;20.942;2023-01-01T17:21:41;11.15;;;4.13;;
68923;SDS011;55961;52.156;20.942;2023-01-01T17:24:08;12.27;;;6.25;;
68923;SDS011;55961;52.156;20.942;2023-01-01T17:26:34;12.97;;;5.97;;
68923;SDS011;55961;52.156;20.942;2023-01-01T17:29:00;12.75;;;5.00;;